Mexico V — XCKR — position and weather

sailwx.info

Track history (hours):
 
Tides and Currents Weather Stations Pressure Air Temp Water Temp Dewpoint Dewpoint Depression Visibility Wind Speed Wind Dir Waves Ship Positions

Mexico V

Last reported at 2017-Jan-18 02:33 UTC. Time now 2017-Jan-18 10:11 UTC.
Position N 20°32' W 086°58'.

Length 40 m; draft 1.5 m.

Type: Ship. MMSI: 345110005.

Date/timePositionNaut miles runAvg speedWind from/ knotsBaromVisibWave heightAir tempDewpointWater temp
2017-Jan-18 02:33N 20°32' W 086°58'3 3.0
2017-Jan-18 01:24N 20°34' W 087°00'2 2.4
2017-Jan-18 00:34N 20°33' W 086°59'1 1.2
2017-Jan-17 23:23N 20°34' W 087°00'4 5.0
2017-Jan-17 22:33N 20°31' W 086°57'7 7.2
2017-Jan-17 21:33N 20°36' W 087°02'8 7.9
2017-Jan-17 20:33N 20°29' W 086°58'2 1.1
2017-Jan-17 18:33N 20°31' W 086°57'4 3.6
2017-Jan-17 17:33N 20°33' W 086°60'1 0.5
2017-Jan-17 16:22N 20°33' W 086°59'1 1.0
2017-Jan-17 15:33N 20°33' W 086°60'0 0.5
2017-Jan-17 14:28N 20°33' W 086°60'4 2.3
2017-Jan-17 12:33N 20°29' W 086°59'2 2.3
2017-Jan-17 11:33N 20°31' W 086°57'0 0.0
2017-Jan-17 02:19N 20°31' W 086°57'0 0.2
2017-Jan-17 01:33N 20°31' W 086°57'0 0.2
2017-Jan-17 00:33N 20°31' W 086°57'3 2.7
2017-Jan-16 23:33N 20°32' W 086°59'0 0.3
2017-Jan-16 22:20N 20°33' W 086°59'0 0.1
2017-Jan-16 21:33N 20°33' W 086°59'0 0.1
2017-Jan-16 20:22N 20°33' W 086°60'1 1.2
2017-Jan-16 19:33N 20°34' W 087°00'1 1.1
2017-Jan-16 18:22N 20°33' W 086°59'1 0.7
2017-Jan-16 16:23N 20°34' W 087°00'0 0.1
2017-Jan-16 15:33N 20°34' W 087°00'1 0.6
2017-Jan-16 14:23N 20°34' W 087°00'2 2.5
2017-Jan-16 13:33N 20°33' W 086°59'3 3.1
2017-Jan-16 12:34N 20°30' W 086°59'2 1.7
2017-Jan-16 11:34N 20°31' W 086°58'1 0.2
2017-Jan-16 02:33N 20°32' W 086°58'3 2.4
2017-Jan-16 01:23N 20°34' W 087°00'2 2.7
2017-Jan-16 00:33N 20°32' W 086°59'2 1.8
2017-Jan-15 23:23N 20°34' W 087°00'2 2.4
2017-Jan-15 22:33N 20°32' W 086°59'3 2.2
2017-Jan-15 21:24N 20°34' W 087°01'1 1.5
2017-Jan-15 20:33N 20°33' W 086°60'1 0.6
2017-Jan-15 19:22N 20°34' W 087°00'1 1.1
2017-Jan-15 18:33N 20°33' W 086°60'1 1.1
2017-Jan-15 17:24N 20°34' W 087°01'1 1.3
2017-Jan-15 16:33N 20°33' W 086°60'1 0.5
2017-Jan-15 15:18N 20°33' W 086°59'1 1.6
2017-Jan-15 14:33N 20°34' W 087°00'0 0.2
2017-Jan-15 13:19N 20°34' W 087°00'4 5.2
2017-Jan-15 12:33N 20°31' W 086°57'0 0.0
2017-Jan-15 11:34N 20°31' W 086°57'4 0.4
2017-Jan-15 01:33N 20°33' W 087°00'0 0.3
2017-Jan-15 00:22N 20°33' W 086°60'1 1.1
2017-Jan-14 23:33N 20°32' W 086°60'2 1.6
2017-Jan-14 22:27N 20°34' W 087°01'1 0.6
2017-Jan-14 21:33N 20°33' W 087°01'1 0.9
2017-Jan-14 20:33N 20°34' W 086°60'3 2.6
2017-Jan-14 19:29N 20°35' W 087°02'1 1.2
2017-Jan-14 18:32N 20°36' W 087°01'2 2.3
2017-Jan-14 17:34N 20°34' W 086°60'0 0.3
2017-Jan-14 16:22N 20°33' W 086°60'2 1.8
2017-Jan-14 15:31N 20°34' W 087°01'1 1.1
2017-Jan-14 14:20N 20°34' W 086°60'4 4.9
2017-Jan-14 13:33N 20°31' W 086°57'0 0.3
2017-Jan-14 12:33N 20°31' W 086°57'4 0.3
2017-Jan-13 23:33N 20°33' W 086°60'1 1.3
2017-Jan-13 22:33N 20°32' W 086°59'2 2.0
2017-Jan-13 21:33N 20°32' W 087°01'1 1.4
2017-Jan-13 20:32N 20°33' W 086°60'4 1.9
2017-Jan-13 18:33N 20°31' W 086°57'6 2.6
2017-Jan-13 16:14N 20°36' W 087°01'6 9.0
2017-Jan-13 15:33N 20°30' W 086°57'4 3.0
2017-Jan-13 14:07N 20°33' W 087°01'5 8.8
2017-Jan-13 13:34N 20°29' W 086°58'1 0.7
2017-Jan-13 12:33N 20°29' W 086°58'2 0.2
2017-Jan-13 03:10N 20°31' W 086°57'2 3.0
2017-Jan-13 02:33N 20°32' W 086°59'1 1.1
2017-Jan-13 01:19N 20°33' W 086°60'0 0.3
2017-Jan-13 00:34N 20°33' W 086°60'1 1.1
2017-Jan-12 23:26N 20°34' W 087°01'2 1.9
2017-Jan-12 22:33N 20°32' W 086°59'0 0.4
2017-Jan-12 21:19N 20°33' W 086°59'0 0.2
2017-Jan-12 20:33N 20°33' W 086°60'0 0.2
2017-Jan-12 19:19N 20°33' W 086°60'0 0.5
2017-Jan-12 18:33N 20°33' W 086°60'1 0.5
2017-Jan-12 17:20N 20°34' W 086°60'1 0.9
2017-Jan-12 16:34N 20°33' W 086°60'1 0.8
2017-Jan-12 15:22N 20°34' W 087°00'2 3.0
2017-Jan-12 14:34N 20°32' W 086°58'3 2.5
2017-Jan-12 13:22N 20°34' W 087°01'5 5.9
2017-Jan-12 12:33N 20°31' W 086°57'0 0.0
2017-Jan-12 02:22N 20°31' W 086°57'1 1.5
2017-Jan-12 01:33N 20°32' W 086°58'3 2.0
2017-Jan-12 00:18N 20°33' W 086°60'2 2.3
2017-Jan-11 23:33N 20°32' W 086°58'2 1.9
2017-Jan-11 22:21N 20°34' W 087°00'1 1.8
2017-Jan-11 21:33N 20°33' W 086°59'1 0.8
2017-Jan-11 20:20N 20°33' W 086°60'1 0.8
2017-Jan-11 19:33N 20°33' W 086°59'1 0.6
2017-Jan-11 18:20N 20°33' W 086°60'0 0.5
2017-Jan-11 17:33N 20°33' W 087°00'1 0.6
2017-Jan-11 16:22N 20°34' W 087°00'0 0.1
2017-Jan-11 14:19N 20°34' W 086°60'4 5.1
2017-Jan-11 13:34N 20°31' W 086°57'0 0.0
2017-Jan-11 03:10N 20°31' W 086°57'2 3.0
2017-Jan-11 02:33N 20°32' W 086°59'1 1.2
2017-Jan-11 01:20N 20°33' W 086°60'1 1.2
2017-Jan-11 00:33N 20°32' W 086°59'2 1.8
2017-Jan-10 23:21N 20°34' W 087°00'3 3.4
2017-Jan-10 22:33N 20°32' W 086°59'3 2.9
2017-Jan-10 21:22N 20°35' W 087°01'3 3.2
2017-Jan-10 20:34N 20°32' W 086°59'1 0.8
2017-Jan-10 19:22N 20°33' W 086°60'1 0.7
2017-Jan-10 18:33N 20°33' W 087°00'1 1.3
2017-Jan-10 17:33N 20°34' W 087°00'0 0.1
2017-Jan-10 15:21N 20°34' W 087°00'2 1.9
2017-Jan-10 14:33N 20°33' W 086°59'1 1.1
2017-Jan-10 13:21N 20°34' W 087°00'4 5.3
2017-Jan-10 12:33N 20°31' W 086°57'0 0.0
2017-Jan-10 03:33N 20°31' W 086°57'1 1.3
2017-Jan-10 02:33N 20°32' W 086°58'3 2.0
2017-Jan-10 01:18N 20°33' W 086°60'2 3.0
2017-Jan-10 00:33N 20°32' W 086°58'1 1.2
2017-Jan-09 23:17N 20°33' W 086°59'1 1.4
2017-Jan-09 22:33N 20°32' W 086°59'2 1.3
2017-Jan-09 21:17N 20°33' W 086°60'1 0.7
2017-Jan-09 20:33N 20°33' W 086°60'0 0.4
2017-Jan-09 19:22N 20°33' W 086°60'1 0.3
2017-Jan-09 17:24N 20°33' W 086°59'1 0.4
2017-Jan-09 15:23N 20°34' W 086°60'2 2.7
2017-Jan-09 14:33N 20°31' W 086°59'2 0.2
2017-Jan-09 04:27N 20°31' W 086°57'2 2.1
2017-Jan-09 03:17N 20°29' W 086°59'0 0.1
2017-Jan-09 02:29N 20°29' W 086°59'1 1.4
2017-Jan-09 01:33N 20°30' W 086°59'2 0.9
2017-Jan-08 23:21N 20°32' W 086°59'2 2.1
2017-Jan-08 22:34N 20°32' W 087°00'1 1.0
2017-Jan-08 21:20N 20°32' W 086°59'0 0.5
2017-Jan-08 20:34N 20°32' W 086°59'1 0.5
2017-Jan-08 19:17N 20°33' W 086°60'3 4.2
2017-Jan-08 18:33N 20°31' W 086°57'0 0.1
2017-Jan-08 17:33N 20°31' W 086°57'2 1.0
2017-Jan-08 15:33N 20°30' W 086°59'1 1.1
2017-Jan-08 14:33N 20°29' W 086°59'2 2.4
2017-Jan-08 13:33N 20°31' W 086°57'0 0.1
2017-Jan-08 12:33N 20°31' W 086°57'0 0.0
2017-Jan-08 03:17N 20°31' W 086°57'1 1.7
2017-Jan-08 02:34N 20°32' W 086°58'  
Track history (hours):
 
Tides and Currents Weather Stations Pressure Air Temp Water Temp Dewpoint Dewpoint Depression Visibility Wind Speed Wind Dir Waves Ship Positions

Mexico V

Last reported at 2017-Jan-18 02:33 UTC. Time now 2017-Jan-18 10:11 UTC.
Position N 20°32' W 086°58'.

Length 40 m; draft 1.5 m.

Type: Ship. MMSI: 345110005.

Date/timePositionNaut miles runAvg speedWind from/ knotsBaromVisibWave heightAir tempDewpointWater temp
2017-Jan-18 02:33N 20°32' W 086°58'3 3.0
2017-Jan-18 01:24N 20°34' W 087°00'2 2.4
2017-Jan-18 00:34N 20°33' W 086°59'1 1.2
2017-Jan-17 23:23N 20°34' W 087°00'4 5.0
2017-Jan-17 22:33N 20°31' W 086°57'7 7.2
2017-Jan-17 21:33N 20°36' W 087°02'8 7.9
2017-Jan-17 20:33N 20°29' W 086°58'2 1.1
2017-Jan-17 18:33N 20°31' W 086°57'4 3.6
2017-Jan-17 17:33N 20°33' W 086°60'1 0.5
2017-Jan-17 16:22N 20°33' W 086°59'1 1.0
2017-Jan-17 15:33N 20°33' W 086°60'0 0.5
2017-Jan-17 14:28N 20°33' W 086°60'4 2.3
2017-Jan-17 12:33N 20°29' W 086°59'2 2.3
2017-Jan-17 11:33N 20°31' W 086°57'0 0.0
2017-Jan-17 02:19N 20°31' W 086°57'0 0.2
2017-Jan-17 01:33N 20°31' W 086°57'0 0.2
2017-Jan-17 00:33N 20°31' W 086°57'3 2.7
2017-Jan-16 23:33N 20°32' W 086°59'0 0.3
2017-Jan-16 22:20N 20°33' W 086°59'0 0.1
2017-Jan-16 21:33N 20°33' W 086°59'0 0.1
2017-Jan-16 20:22N 20°33' W 086°60'1 1.2
2017-Jan-16 19:33N 20°34' W 087°00'1 1.1
2017-Jan-16 18:22N 20°33' W 086°59'1 0.7
2017-Jan-16 16:23N 20°34' W 087°00'0 0.1
2017-Jan-16 15:33N 20°34' W 087°00'1 0.6
2017-Jan-16 14:23N 20°34' W 087°00'2 2.5
2017-Jan-16 13:33N 20°33' W 086°59'3 3.1
2017-Jan-16 12:34N 20°30' W 086°59'2 1.7
2017-Jan-16 11:34N 20°31' W 086°58'1 0.2
2017-Jan-16 02:33N 20°32' W 086°58'3 2.4
2017-Jan-16 01:23N 20°34' W 087°00'2 2.7
2017-Jan-16 00:33N 20°32' W 086°59'2 1.8
2017-Jan-15 23:23N 20°34' W 087°00'2 2.4
2017-Jan-15 22:33N 20°32' W 086°59'3 2.2
2017-Jan-15 21:24N 20°34' W 087°01'1 1.5
2017-Jan-15 20:33N 20°33' W 086°60'1 0.6
2017-Jan-15 19:22N 20°34' W 087°00'1 1.1
2017-Jan-15 18:33N 20°33' W 086°60'1 1.1
2017-Jan-15 17:24N 20°34' W 087°01'1 1.3
2017-Jan-15 16:33N 20°33' W 086°60'1 0.5
2017-Jan-15 15:18N 20°33' W 086°59'1 1.6
2017-Jan-15 14:33N 20°34' W 087°00'0 0.2
2017-Jan-15 13:19N 20°34' W 087°00'4 5.2
2017-Jan-15 12:33N 20°31' W 086°57'0 0.0
2017-Jan-15 11:34N 20°31' W 086°57'4 0.4
2017-Jan-15 01:33N 20°33' W 087°00'0 0.3
2017-Jan-15 00:22N 20°33' W 086°60'1 1.1
2017-Jan-14 23:33N 20°32' W 086°60'2 1.6
2017-Jan-14 22:27N 20°34' W 087°01'1 0.6
2017-Jan-14 21:33N 20°33' W 087°01'1 0.9
2017-Jan-14 20:33N 20°34' W 086°60'3 2.6
2017-Jan-14 19:29N 20°35' W 087°02'1 1.2
2017-Jan-14 18:32N 20°36' W 087°01'2 2.3
2017-Jan-14 17:34N 20°34' W 086°60'0 0.3
2017-Jan-14 16:22N 20°33' W 086°60'2 1.8
2017-Jan-14 15:31N 20°34' W 087°01'1 1.1
2017-Jan-14 14:20N 20°34' W 086°60'4 4.9
2017-Jan-14 13:33N 20°31' W 086°57'0 0.3
2017-Jan-14 12:33N 20°31' W 086°57'4 0.3
2017-Jan-13 23:33N 20°33' W 086°60'1 1.3
2017-Jan-13 22:33N 20°32' W 086°59'2 2.0
2017-Jan-13 21:33N 20°32' W 087°01'1 1.4
2017-Jan-13 20:32N 20°33' W 086°60'4 1.9
2017-Jan-13 18:33N 20°31' W 086°57'6 2.6
2017-Jan-13 16:14N 20°36' W 087°01'6 9.0
2017-Jan-13 15:33N 20°30' W 086°57'4 3.0
2017-Jan-13 14:07N 20°33' W 087°01'5 8.8
2017-Jan-13 13:34N 20°29' W 086°58'1 0.7
2017-Jan-13 12:33N 20°29' W 086°58'2 0.2
2017-Jan-13 03:10N 20°31' W 086°57'2 3.0
2017-Jan-13 02:33N 20°32' W 086°59'1 1.1
2017-Jan-13 01:19N 20°33' W 086°60'0 0.3
2017-Jan-13 00:34N 20°33' W 086°60'1 1.1
2017-Jan-12 23:26N 20°34' W 087°01'2 1.9
2017-Jan-12 22:33N 20°32' W 086°59'0 0.4
2017-Jan-12 21:19N 20°33' W 086°59'0 0.2
2017-Jan-12 20:33N 20°33' W 086°60'0 0.2
2017-Jan-12 19:19N 20°33' W 086°60'0 0.5
2017-Jan-12 18:33N 20°33' W 086°60'1 0.5
2017-Jan-12 17:20N 20°34' W 086°60'1 0.9
2017-Jan-12 16:34N 20°33' W 086°60'1 0.8
2017-Jan-12 15:22N 20°34' W 087°00'2 3.0
2017-Jan-12 14:34N 20°32' W 086°58'3 2.5
2017-Jan-12 13:22N 20°34' W 087°01'5 5.9
2017-Jan-12 12:33N 20°31' W 086°57'0 0.0
2017-Jan-12 02:22N 20°31' W 086°57'1 1.5
2017-Jan-12 01:33N 20°32' W 086°58'3 2.0
2017-Jan-12 00:18N 20°33' W 086°60'2 2.3
2017-Jan-11 23:33N 20°32' W 086°58'2 1.9
2017-Jan-11 22:21N 20°34' W 087°00'1 1.8
2017-Jan-11 21:33N 20°33' W 086°59'1 0.8
2017-Jan-11 20:20N 20°33' W 086°60'1 0.8
2017-Jan-11 19:33N 20°33' W 086°59'1 0.6
2017-Jan-11 18:20N 20°33' W 086°60'0 0.5
2017-Jan-11 17:33N 20°33' W 087°00'1 0.6
2017-Jan-11 16:22N 20°34' W 087°00'0 0.1
2017-Jan-11 14:19N 20°34' W 086°60'4 5.1
2017-Jan-11 13:34N 20°31' W 086°57'0 0.0
2017-Jan-11 03:10N 20°31' W 086°57'2 3.0
2017-Jan-11 02:33N 20°32' W 086°59'1 1.2
2017-Jan-11 01:20N 20°33' W 086°60'1 1.2
2017-Jan-11 00:33N 20°32' W 086°59'2 1.8
2017-Jan-10 23:21N 20°34' W 087°00'3 3.4
2017-Jan-10 22:33N 20°32' W 086°59'3 2.9
2017-Jan-10 21:22N 20°35' W 087°01'3 3.2
2017-Jan-10 20:34N 20°32' W 086°59'1 0.8
2017-Jan-10 19:22N 20°33' W 086°60'1 0.7
2017-Jan-10 18:33N 20°33' W 087°00'1 1.3
2017-Jan-10 17:33N 20°34' W 087°00'0 0.1
2017-Jan-10 15:21N 20°34' W 087°00'2 1.9
2017-Jan-10 14:33N 20°33' W 086°59'1 1.1
2017-Jan-10 13:21N 20°34' W 087°00'4 5.3
2017-Jan-10 12:33N 20°31' W 086°57'0 0.0
2017-Jan-10 03:33N 20°31' W 086°57'1 1.3
2017-Jan-10 02:33N 20°32' W 086°58'3 2.0
2017-Jan-10 01:18N 20°33' W 086°60'2 3.0
2017-Jan-10 00:33N 20°32' W 086°58'1 1.2
2017-Jan-09 23:17N 20°33' W 086°59'1 1.4
2017-Jan-09 22:33N 20°32' W 086°59'2 1.3
2017-Jan-09 21:17N 20°33' W 086°60'1 0.7
2017-Jan-09 20:33N 20°33' W 086°60'0 0.4
2017-Jan-09 19:22N 20°33' W 086°60'1 0.3
2017-Jan-09 17:24N 20°33' W 086°59'1 0.4
2017-Jan-09 15:23N 20°34' W 086°60'2 2.7
2017-Jan-09 14:33N 20°31' W 086°59'2 0.2
2017-Jan-09 04:27N 20°31' W 086°57'2 2.1
2017-Jan-09 03:17N 20°29' W 086°59'0 0.1
2017-Jan-09 02:29N 20°29' W 086°59'1 1.4
2017-Jan-09 01:33N 20°30' W 086°59'2 0.9
2017-Jan-08 23:21N 20°32' W 086°59'2 2.1
2017-Jan-08 22:34N 20°32' W 087°00'1 1.0
2017-Jan-08 21:20N 20°32' W 086°59'0 0.5
2017-Jan-08 20:34N 20°32' W 086°59'1 0.5
2017-Jan-08 19:17N 20°33' W 086°60'3 4.2
2017-Jan-08 18:33N 20°31' W 086°57'0 0.1
2017-Jan-08 17:33N 20°31' W 086°57'2 1.0
2017-Jan-08 15:33N 20°30' W 086°59'1 1.1
2017-Jan-08 14:33N 20°29' W 086°59'2 2.4
2017-Jan-08 13:33N 20°31' W 086°57'0 0.1
2017-Jan-08 12:33N 20°31' W 086°57'0 0.0
2017-Jan-08 03:17N 20°31' W 086°57'1 1.7
2017-Jan-08 02:34N 20°32' W 086°58'  

Dump ship's entire track history